createdAt,value
2018-03-06T00:00:10.132Z,1003.05
2018-03-06T00:01:10.708Z,1003.09
2018-03-06T00:02:11.285Z,1003.06
2018-03-06T00:03:11.863Z,1003.07
2018-03-06T00:04:12.444Z,1003.02
2018-03-06T00:05:13.024Z,1003.04
2018-03-06T00:06:13.600Z,1002.98
2018-03-06T00:07:14.176Z,1002.94
2018-03-06T00:08:14.758Z,1002.90
2018-03-06T00:09:15.340Z,1002.90
2018-03-06T00:10:15.970Z,1002.91
2018-03-06T00:11:16.552Z,1002.84
2018-03-06T00:12:17.134Z,1002.76
2018-03-06T00:13:17.711Z,1002.81
2018-03-06T00:14:18.292Z,1002.73
2018-03-06T00:15:18.925Z,1002.80
2018-03-06T00:16:19.505Z,1002.76
2018-03-06T00:17:20.085Z,1002.85
2018-03-06T00:18:20.667Z,1002.83
2018-03-06T00:19:21.296Z,1002.72
2018-03-06T00:20:21.888Z,1002.80
2018-03-06T00:21:22.455Z,1002.97
2018-03-06T00:22:23.086Z,1003.03
2018-03-06T00:23:23.665Z,1003.01
2018-03-06T00:24:24.242Z,1003.04
2018-03-06T00:25:24.824Z,1003.09
2018-03-06T00:26:25.414Z,1002.98
2018-03-06T00:27:26.026Z,1003.05
2018-03-06T00:28:26.603Z,1003.01
2018-03-06T00:29:27.232Z,1003.03
2018-03-06T00:30:27.909Z,1003.03
2018-03-06T00:31:28.590Z,1003.06
2018-03-06T00:32:29.270Z,1002.97
2018-03-06T00:33:29.849Z,1003.00
2018-03-06T00:34:30.424Z,1002.96
2018-03-06T00:35:31.001Z,1003.03
2018-03-06T00:36:31.580Z,1003.00
2018-03-06T00:37:32.213Z,1003.02
2018-03-06T00:38:32.792Z,1003.02
2018-03-06T00:39:33.372Z,1002.95
2018-03-06T00:40:33.948Z,1003.06
2018-03-06T00:41:34.527Z,1003.01
2018-03-06T00:42:35.110Z,1003.03
2018-03-06T00:43:35.687Z,1003.02
2018-03-06T00:44:36.268Z,1003.00
2018-03-06T00:45:36.899Z,1002.96
2018-03-06T00:46:37.480Z,1003.04
2018-03-06T00:47:38.061Z,1003.00
2018-03-06T00:48:38.689Z,1003.03
2018-03-06T00:49:39.319Z,1003.01
2018-03-06T00:50:39.900Z,1002.96
2018-03-06T00:51:40.482Z,1003.00
2018-03-06T00:52:41.056Z,1002.95
2018-03-06T00:53:41.639Z,1003.01
2018-03-06T00:54:42.213Z,1002.99
2018-03-06T00:55:42.792Z,1003.03
2018-03-06T00:56:43.371Z,1002.99
2018-03-06T00:57:43.950Z,1003.01
2018-03-06T00:58:44.526Z,1003.04
2018-03-06T00:59:45.102Z,1002.96
2018-03-06T01:00:45.680Z,1002.99
2018-03-06T01:01:46.309Z,1002.99
2018-03-06T01:02:46.886Z,1002.98
2018-03-06T01:03:47.511Z,1002.95
2018-03-06T01:04:48.092Z,1002.98
2018-03-06T01:05:48.671Z,1002.97
2018-03-06T01:06:49.298Z,1002.95
2018-03-06T01:07:49.882Z,1003.01
2018-03-06T01:08:50.462Z,1002.96
2018-03-06T01:09:51.092Z,1003.04
2018-03-06T01:10:51.671Z,1002.97
2018-03-06T01:11:52.248Z,1002.96
2018-03-06T01:12:52.827Z,1002.99
2018-03-06T01:13:53.413Z,1002.90
2018-03-06T01:14:53.988Z,1002.90
2018-03-06T01:15:54.567Z,1002.93
2018-03-06T01:16:55.148Z,1002.87
2018-03-06T01:17:55.727Z,1002.93
2018-03-06T01:18:56.308Z,1002.90
2018-03-06T01:19:56.943Z,1002.92
2018-03-06T01:20:57.515Z,1002.92
2018-03-06T01:21:58.097Z,1002.92
2018-03-06T01:22:58.675Z,1002.93
2018-03-06T01:23:59.249Z,1002.86
2018-03-06T01:24:59.864Z,1002.85
2018-03-06T01:26:00.495Z,1002.89
2018-03-06T01:27:01.070Z,1002.84
2018-03-06T01:28:01.698Z,1002.90
2018-03-06T01:29:02.274Z,1002.85
2018-03-06T01:30:02.851Z,1002.86
2018-03-06T01:31:03.426Z,1002.76
2018-03-06T01:32:04.003Z,1002.81
2018-03-06T01:33:04.582Z,1002.80
2018-03-06T01:34:05.167Z,1002.81
2018-03-06T01:35:05.800Z,1002.74
2018-03-06T01:36:06.378Z,1002.73
2018-03-06T01:37:06.951Z,1002.67
2018-03-06T01:38:07.579Z,1002.74
2018-03-06T01:39:08.157Z,1002.74
2018-03-06T01:40:08.737Z,1002.77
2018-03-06T01:41:09.320Z,1002.75
2018-03-06T01:42:09.900Z,1002.75
2018-03-06T01:43:10.479Z,1002.71
2018-03-06T01:44:11.062Z,1002.72
2018-03-06T01:45:11.640Z,1002.75
2018-03-06T01:46:12.271Z,1002.74
2018-03-06T01:47:12.852Z,1002.79
2018-03-06T01:48:13.430Z,1002.70
2018-03-06T01:49:14.004Z,1002.64
2018-03-06T01:50:14.631Z,1002.60
2018-03-06T01:51:15.210Z,1002.54
2018-03-06T01:52:15.791Z,1002.64
2018-03-06T01:53:16.522Z,1002.58
2018-03-06T01:54:17.103Z,1002.58
2018-03-06T01:55:17.684Z,1002.53
2018-03-06T01:56:18.312Z,1002.54
2018-03-06T01:57:18.891Z,1002.44
2018-03-06T01:58:19.472Z,1002.42
2018-03-06T01:59:20.049Z,1002.38
2018-03-06T02:00:25.681Z,1002.43
2018-03-06T02:01:26.307Z,1002.40
2018-03-06T02:02:26.883Z,1002.40
2018-03-06T02:03:27.461Z,1002.46
2018-03-06T02:04:28.039Z,1002.56
2018-03-06T02:05:28.620Z,1002.68
2018-03-06T02:06:29.245Z,1002.76
2018-03-06T02:07:29.824Z,1002.96
2018-03-06T02:08:30.452Z,1003.08
2018-03-06T02:09:31.031Z,1003.09
2018-03-06T02:10:31.609Z,1002.99
2018-03-06T02:11:32.233Z,1002.88
2018-03-06T02:12:32.811Z,1002.79
2018-03-06T02:13:33.390Z,1002.93
2018-03-06T02:14:34.025Z,1002.80
2018-03-06T02:15:34.547Z,1002.70
2018-03-06T02:16:35.124Z,1002.62
2018-03-06T02:17:35.709Z,1002.71
2018-03-06T02:18:36.297Z,1002.64
2018-03-06T02:19:36.876Z,1002.73
2018-03-06T02:20:37.457Z,1002.72
2018-03-06T02:21:38.086Z,1002.77
2018-03-06T02:22:38.668Z,1002.90
2018-03-06T02:23:39.247Z,1002.79
2018-03-06T02:24:39.828Z,1002.81
2018-03-06T02:25:40.407Z,1002.73
2018-03-06T02:26:40.986Z,1002.79
2018-03-06T02:27:41.564Z,1002.67
2018-03-06T02:28:42.192Z,1002.55
2018-03-06T02:29:42.765Z,1002.51
2018-03-06T02:30:43.344Z,1002.60
2018-03-06T02:31:43.969Z,1002.52
2018-03-06T02:32:44.547Z,1002.55
2018-03-06T02:33:45.126Z,1002.63
2018-03-06T02:34:45.708Z,1002.58
2018-03-06T02:35:46.287Z,1002.45
2018-03-06T02:36:46.870Z,1002.51
2018-03-06T02:37:47.446Z,1002.57
2018-03-06T02:38:48.023Z,1002.48
2018-03-06T02:39:48.651Z,1002.59
2018-03-06T02:40:49.231Z,1002.49
2018-03-06T02:41:49.809Z,1002.58
2018-03-06T02:42:50.387Z,1002.52
2018-03-06T02:43:51.014Z,1002.44
2018-03-06T02:44:51.594Z,1002.46
2018-03-06T02:45:52.177Z,1002.46
2018-03-06T02:46:52.752Z,1002.48
2018-03-06T02:47:53.333Z,1002.49
2018-03-06T02:48:53.962Z,1002.51
2018-03-06T02:49:54.538Z,1002.48
2018-03-06T02:50:55.118Z,1002.50
2018-03-06T02:51:55.696Z,1002.53
2018-03-06T02:52:56.277Z,1002.48
2018-03-06T02:53:56.857Z,1002.47
2018-03-06T02:54:57.436Z,1002.45
2018-03-06T02:55:58.017Z,1002.50
2018-03-06T02:56:58.647Z,1002.43
2018-03-06T02:57:59.224Z,1002.45
2018-03-06T02:58:59.854Z,1002.34
2018-03-06T03:00:00.432Z,1002.47
2018-03-06T03:01:01.051Z,1002.41
2018-03-06T03:02:01.586Z,1002.38
2018-03-06T03:03:02.162Z,1002.40
2018-03-06T03:04:02.891Z,1002.43
2018-03-06T03:05:03.473Z,1002.40
2018-03-06T03:06:04.050Z,1002.33
2018-03-06T03:07:04.624Z,1002.40
2018-03-06T03:08:05.202Z,1002.37
2018-03-06T03:09:05.779Z,1002.39
2018-03-06T03:10:06.356Z,1002.35
2018-03-06T03:11:06.935Z,1002.24
2018-03-06T03:12:07.514Z,1002.41
2018-03-06T03:13:08.092Z,1002.33
2018-03-06T03:14:08.674Z,1002.32
2018-03-06T03:15:09.303Z,1002.39
2018-03-06T03:16:09.879Z,1002.30
2018-03-06T03:17:10.460Z,1002.21
2018-03-06T03:18:11.043Z,1002.23
2018-03-06T03:19:11.674Z,1002.12
2018-03-06T03:20:12.254Z,1002.16
2018-03-06T03:21:12.882Z,1002.12
2018-03-06T03:22:13.461Z,1002.12
2018-03-06T03:23:14.044Z,1002.15
2018-03-06T03:24:14.621Z,1002.12
2018-03-06T03:25:15.202Z,1002.09
2018-03-06T03:26:15.784Z,1002.05
2018-03-06T03:27:16.363Z,1002.03
2018-03-06T03:28:16.943Z,1002.01
2018-03-06T03:29:17.525Z,1002.05
2018-03-06T03:30:18.102Z,1002.01
2018-03-06T03:31:18.684Z,1002.09
2018-03-06T03:32:19.260Z,1002.07
2018-03-06T03:33:19.838Z,1002.27
2018-03-06T03:34:20.466Z,1002.59
2018-03-06T03:35:21.095Z,1002.57
2018-03-06T03:36:21.672Z,1002.66
2018-03-06T03:37:22.248Z,1002.61
2018-03-06T03:38:22.825Z,1002.62
2018-03-06T03:39:23.402Z,1002.59
2018-03-06T03:40:24.033Z,1002.55
2018-03-06T03:41:24.608Z,1002.59
2018-03-06T03:42:25.187Z,1002.55
2018-03-06T03:43:25.770Z,1002.56
2018-03-06T03:44:26.349Z,1002.50
2018-03-06T03:45:26.977Z,1002.48
2018-03-06T03:46:27.555Z,1002.53
2018-03-06T03:47:28.134Z,1002.54
2018-03-06T03:48:28.712Z,1002.50
2018-03-06T03:49:29.290Z,1002.60
2018-03-06T03:50:29.920Z,1002.37
2018-03-06T03:51:30.498Z,1002.51
2018-03-06T03:52:31.080Z,1002.45
2018-03-06T03:53:31.807Z,1002.38
2018-03-06T03:54:32.385Z,1002.35
2018-03-06T03:55:32.963Z,1002.43
2018-03-06T03:56:33.545Z,1002.35
2018-03-06T03:57:34.122Z,1002.40
2018-03-06T03:58:34.696Z,1002.30
2018-03-06T03:59:35.272Z,1002.20
2018-03-06T04:00:35.887Z,1002.23
2018-03-06T04:01:36.467Z,1002.26
2018-03-06T04:02:37.096Z,1002.31
2018-03-06T04:03:37.679Z,1002.35
2018-03-06T04:04:38.255Z,1002.27
2018-03-06T04:05:38.834Z,1002.23
2018-03-06T04:06:39.416Z,1002.27
2018-03-06T04:07:39.996Z,1002.28
2018-03-06T04:08:40.575Z,1002.31
2018-03-06T04:09:41.207Z,1002.28
2018-03-06T04:10:41.789Z,1002.28
2018-03-06T04:11:42.517Z,1002.31
2018-03-06T04:12:43.097Z,1002.31
2018-03-06T04:13:43.677Z,1002.34
2018-03-06T04:14:44.253Z,1002.34
2018-03-06T04:15:44.834Z,1002.38
2018-03-06T04:16:45.411Z,1002.36
2018-03-06T04:17:45.991Z,1002.39
2018-03-06T04:18:46.573Z,1002.35
2018-03-06T04:19:47.151Z,1002.42
2018-03-06T04:20:47.779Z,1002.33
2018-03-06T04:21:48.357Z,1002.35
2018-03-06T04:22:48.931Z,1002.40
2018-03-06T04:23:49.510Z,1002.39
2018-03-06T04:24:50.137Z,1002.34
2018-03-06T04:25:50.717Z,1002.33
2018-03-06T04:26:51.345Z,1002.41
2018-03-06T04:27:51.923Z,1002.48
2018-03-06T04:28:52.503Z,1002.34
2018-03-06T04:29:53.079Z,1002.44
2018-03-06T04:30:53.660Z,1002.42
2018-03-06T04:31:54.243Z,1002.42
2018-03-06T04:32:54.816Z,1002.43
2018-03-06T04:33:55.397Z,1002.41
2018-03-06T04:34:55.971Z,1002.35
2018-03-06T04:35:56.548Z,1002.32
2018-03-06T04:36:57.126Z,1002.30
2018-03-06T04:37:57.702Z,1002.33
2018-03-06T04:38:58.285Z,1002.30
2018-03-06T04:39:58.913Z,1002.35
2018-03-06T04:40:59.543Z,1002.39
2018-03-06T04:42:00.125Z,1002.39
2018-03-06T04:43:00.754Z,1002.39
2018-03-06T04:44:01.329Z,1002.35
2018-03-06T04:45:01.908Z,1002.34
2018-03-06T04:46:02.541Z,1002.35
2018-03-06T04:47:03.123Z,1002.42
2018-03-06T04:48:03.701Z,1002.34
2018-03-06T04:49:04.282Z,1002.35
2018-03-06T04:50:04.865Z,1002.43
2018-03-06T04:51:05.439Z,1002.37
2018-03-06T04:52:06.065Z,1002.36
2018-03-06T04:53:06.644Z,1002.46
2018-03-06T04:54:07.224Z,1002.39
2018-03-06T04:55:07.801Z,1002.44
2018-03-06T04:56:08.379Z,1002.44
2018-03-06T04:57:09.008Z,1002.36
2018-03-06T04:58:09.585Z,1002.48
2018-03-06T04:59:10.162Z,1002.40
2018-03-06T05:00:10.741Z,1002.50
2018-03-06T05:01:11.373Z,1002.47
2018-03-06T05:02:11.946Z,1002.43
2018-03-06T05:03:12.524Z,1002.45
2018-03-06T05:04:13.104Z,1002.44
2018-03-06T05:05:13.681Z,1002.44
2018-03-06T05:06:14.262Z,1002.45
2018-03-06T05:07:14.837Z,1002.47
2018-03-06T05:08:15.419Z,1002.47
2018-03-06T05:09:16.047Z,1002.52
2018-03-06T05:10:16.674Z,1002.47
2018-03-06T05:11:17.310Z,1002.47
2018-03-06T05:12:17.885Z,1002.44
2018-03-06T05:13:18.469Z,1002.48
2018-03-06T05:14:19.046Z,1002.48
2018-03-06T05:15:19.622Z,1002.54
2018-03-06T05:16:20.204Z,1002.54
2018-03-06T05:17:20.778Z,1002.51
2018-03-06T05:18:21.357Z,1002.54
2018-03-06T05:19:21.936Z,1002.49
2018-03-06T05:20:22.570Z,1002.50
2018-03-06T05:21:23.146Z,1002.60
2018-03-06T05:22:23.784Z,1002.49
2018-03-06T05:23:24.356Z,1002.50
2018-03-06T05:24:24.936Z,1002.54
2018-03-06T05:25:25.516Z,1002.49
2018-03-06T05:26:26.098Z,1002.50
2018-03-06T05:27:26.671Z,1002.52
2018-03-06T05:28:27.250Z,1002.50
2018-03-06T05:29:27.876Z,1002.47
2018-03-06T05:30:28.456Z,1002.54
2018-03-06T05:31:29.035Z,1002.55
2018-03-06T05:32:29.613Z,1002.50
2018-03-06T05:33:30.189Z,1002.53
2018-03-06T05:34:30.770Z,1002.47
2018-03-06T05:35:31.347Z,1002.50
2018-03-06T05:36:31.976Z,1002.44
2018-03-06T05:37:32.552Z,1002.54
2018-03-06T05:38:33.129Z,1002.53
2018-03-06T05:39:33.756Z,1002.56
2018-03-06T05:40:34.337Z,1002.64
2018-03-06T05:41:34.911Z,1002.61
2018-03-06T05:42:35.487Z,1002.58
2018-03-06T05:43:36.065Z,1002.63
2018-03-06T05:44:36.694Z,1002.54
2018-03-06T05:45:37.269Z,1002.59
2018-03-06T05:46:37.850Z,1002.60
2018-03-06T05:47:38.433Z,1002.52
2018-03-06T05:48:39.011Z,1002.50
2018-03-06T05:49:39.591Z,1002.61
2018-03-06T05:50:40.172Z,1002.56
2018-03-06T05:51:40.753Z,1002.61
2018-03-06T05:52:41.334Z,1002.63
2018-03-06T05:53:41.962Z,1002.69
2018-03-06T05:54:42.544Z,1002.64
2018-03-06T05:55:43.123Z,1002.61
2018-03-06T05:56:43.703Z,1002.62
2018-03-06T05:57:44.283Z,1002.72
2018-03-06T05:58:44.864Z,1002.65
2018-03-06T05:59:45.442Z,1002.66
2018-03-06T06:00:46.025Z,1002.63
2018-03-06T06:01:46.657Z,1002.68
2018-03-06T06:02:47.238Z,1002.68
2018-03-06T06:03:47.865Z,1002.66
2018-03-06T06:04:48.482Z,1002.70
2018-03-06T06:05:49.061Z,1002.72
2018-03-06T06:06:49.638Z,1002.86
2018-03-06T06:07:50.215Z,1002.72
2018-03-06T06:08:50.794Z,1002.82
2018-03-06T06:09:51.368Z,1002.79
2018-03-06T06:10:51.997Z,1002.81
2018-03-06T06:11:52.573Z,1002.82
2018-03-06T06:12:53.150Z,1002.81
2018-03-06T06:13:53.725Z,1002.81
2018-03-06T06:14:54.308Z,1002.84
2018-03-06T06:15:54.890Z,1002.80
2018-03-06T06:16:55.472Z,1002.77
2018-03-06T06:17:56.046Z,1002.87
2018-03-06T06:18:56.673Z,1002.81
2018-03-06T06:19:57.302Z,1002.86
2018-03-06T06:20:57.883Z,1002.83
2018-03-06T06:21:58.513Z,1002.87
2018-03-06T06:22:59.095Z,1002.93
2018-03-06T06:23:59.673Z,1002.85
2018-03-06T06:25:00.254Z,1002.92
2018-03-06T06:26:00.834Z,1002.91
2018-03-06T06:27:01.413Z,1002.95
2018-03-06T06:28:02.041Z,1002.99
2018-03-06T06:29:02.623Z,1002.94
2018-03-06T06:30:03.198Z,1002.97
2018-03-06T06:31:03.875Z,1003.03
2018-03-06T06:32:04.453Z,1003.08
2018-03-06T06:33:05.031Z,1002.99
2018-03-06T06:34:05.710Z,1003.06
2018-03-06T06:35:06.386Z,1003.07
2018-03-06T06:36:06.962Z,1003.08
2018-03-06T06:37:07.538Z,1003.14
2018-03-06T06:38:08.116Z,1003.02
2018-03-06T06:39:08.698Z,1003.09
2018-03-06T06:40:09.273Z,1003.12
2018-03-06T06:41:09.852Z,1003.09
2018-03-06T06:42:10.427Z,1003.03
2018-03-06T06:43:11.005Z,1002.99
2018-03-06T06:44:11.587Z,1003.10
2018-03-06T06:45:12.167Z,1003.07
2018-03-06T06:46:12.740Z,1003.17
2018-03-06T06:47:13.370Z,1003.07
2018-03-06T06:48:13.950Z,1003.13
2018-03-06T06:49:14.532Z,1003.17
2018-03-06T06:50:15.160Z,1003.17
2018-03-06T06:51:15.741Z,1003.12
2018-03-06T06:52:16.322Z,1003.08
2018-03-06T06:53:16.897Z,1003.14
2018-03-06T06:54:17.478Z,1003.18
2018-03-06T06:55:18.108Z,1003.17
2018-03-06T06:56:18.685Z,1003.15
2018-03-06T06:57:19.264Z,1003.12
2018-03-06T06:58:19.843Z,1003.15
2018-03-06T06:59:20.423Z,1003.19
2018-03-06T07:00:21.004Z,1003.21
2018-03-06T07:01:21.587Z,1003.25
2018-03-06T07:02:22.167Z,1003.26
2018-03-06T07:03:22.749Z,1003.28
2018-03-06T07:04:23.384Z,1003.31
2018-03-06T07:05:23.952Z,1003.28
2018-03-06T07:06:24.529Z,1003.27
2018-03-06T07:07:25.109Z,1003.28
2018-03-06T07:08:25.687Z,1003.32
2018-03-06T07:09:26.270Z,1003.39
2018-03-06T07:10:26.942Z,1003.32
2018-03-06T07:11:27.470Z,1003.33
2018-03-06T07:12:28.048Z,1003.37
2018-03-06T07:13:28.679Z,1003.43
2018-03-06T07:14:29.258Z,1003.36
2018-03-06T07:15:29.887Z,1003.41
2018-03-06T07:16:30.510Z,1003.41
2018-03-06T07:17:31.091Z,1003.42
2018-03-06T07:18:31.668Z,1003.42
2018-03-06T07:19:32.245Z,1003.41
2018-03-06T07:20:32.822Z,1003.39
2018-03-06T07:21:33.456Z,1003.47
2018-03-06T07:22:34.032Z,1003.36
2018-03-06T07:23:34.607Z,1003.44
2018-03-06T07:24:35.190Z,1003.45
2018-03-06T07:25:35.770Z,1003.41
2018-03-06T07:26:36.352Z,1003.44
2018-03-06T07:27:36.933Z,1003.45
2018-03-06T07:28:37.514Z,1003.46
2018-03-06T07:29:38.147Z,1003.41
2018-03-06T07:30:38.723Z,1003.40
2018-03-06T07:31:39.305Z,1003.43
2018-03-06T07:32:39.883Z,1003.40
2018-03-06T07:33:40.512Z,1003.49
2018-03-06T07:34:41.092Z,1003.47
2018-03-06T07:35:41.672Z,1003.45
2018-03-06T07:36:42.250Z,1003.47
2018-03-06T07:37:42.834Z,1003.40
2018-03-06T07:38:43.411Z,1003.47
2018-03-06T07:39:43.991Z,1003.49
2018-03-06T07:40:44.620Z,1003.46
2018-03-06T07:41:45.213Z,1003.47
2018-03-06T07:42:45.778Z,1003.56
2018-03-06T07:43:46.349Z,1003.50
2018-03-06T07:44:46.927Z,1003.58
2018-03-06T07:45:47.506Z,1003.57
2018-03-06T07:46:48.084Z,1003.61
2018-03-06T07:47:48.660Z,1003.65
2018-03-06T07:48:49.236Z,1003.62
2018-03-06T07:49:49.867Z,1003.64
2018-03-06T07:50:50.491Z,1003.59
2018-03-06T07:51:51.066Z,1003.68
2018-03-06T07:52:51.653Z,1003.69
2018-03-06T07:53:52.232Z,1003.65
2018-03-06T07:54:52.809Z,1003.71
2018-03-06T07:55:53.541Z,1003.73
2018-03-06T07:56:54.115Z,1003.73
2018-03-06T07:57:54.693Z,1003.73
2018-03-06T07:58:55.273Z,1003.74
2018-03-06T07:59:55.900Z,1003.70
2018-03-06T08:00:56.480Z,1003.66
2018-03-06T08:01:57.060Z,1003.72
2018-03-06T08:02:57.640Z,1003.77
2018-03-06T08:03:58.223Z,1003.83
2018-03-06T08:04:58.800Z,1003.82
2018-03-06T08:05:59.434Z,1003.89
2018-03-06T08:07:00.012Z,1003.91
2018-03-06T08:08:00.633Z,1003.89
2018-03-06T08:09:01.207Z,1003.88
2018-03-06T08:10:01.841Z,1003.98
2018-03-06T08:11:02.474Z,1003.98
2018-03-06T08:12:03.048Z,1003.99
2018-03-06T08:13:03.621Z,1003.99
2018-03-06T08:14:04.201Z,1004.07
2018-03-06T08:15:04.831Z,1004.00
2018-03-06T08:16:05.408Z,1004.05
2018-03-06T08:17:05.982Z,1004.01
2018-03-06T08:18:06.559Z,1004.07
2018-03-06T08:19:07.136Z,1004.07
2018-03-06T08:20:07.719Z,1004.01
2018-03-06T08:21:08.295Z,1004.06
2018-03-06T08:22:08.922Z,1004.16
2018-03-06T08:23:09.504Z,1004.15
2018-03-06T08:24:10.078Z,1004.10
2018-03-06T08:25:10.704Z,1004.06
2018-03-06T08:26:11.281Z,1004.22
2018-03-06T08:27:11.861Z,1004.26
2018-03-06T08:28:12.494Z,1004.25
2018-03-06T08:29:13.114Z,1004.18
2018-03-06T08:30:13.706Z,1004.18
2018-03-06T08:31:14.271Z,1004.14
2018-03-06T08:32:14.852Z,1004.20
2018-03-06T08:33:15.428Z,1004.19
2018-03-06T08:34:16.005Z,1004.16
2018-03-06T08:35:16.585Z,1004.22
2018-03-06T08:36:17.169Z,1004.22
2018-03-06T08:37:17.741Z,1004.19
2018-03-06T08:38:18.318Z,1004.27
2018-03-06T08:39:18.896Z,1004.29
2018-03-06T08:40:19.472Z,1004.29
2018-03-06T08:41:20.255Z,1004.28
2018-03-06T08:42:20.885Z,1004.18
2018-03-06T08:43:21.465Z,1004.34
2018-03-06T08:44:22.045Z,1004.30
2018-03-06T08:45:22.617Z,1004.28
2018-03-06T08:46:23.250Z,1004.28
2018-03-06T08:47:23.822Z,1004.39
2018-03-06T08:48:24.399Z,1004.34
2018-03-06T08:49:24.984Z,1004.39
2018-03-06T08:50:25.565Z,1004.44
2018-03-06T08:51:26.149Z,1004.48
2018-03-06T08:52:26.771Z,1004.42
2018-03-06T08:53:27.310Z,1004.52
2018-03-06T08:54:27.891Z,1004.46
2018-03-06T08:55:28.473Z,1004.50
2018-03-06T08:56:29.052Z,1004.46
2018-03-06T08:57:29.678Z,1004.50
2018-03-06T08:58:30.258Z,1004.53
2018-03-06T08:59:30.839Z,1004.54
2018-03-06T09:00:31.419Z,1004.63
2018-03-06T09:01:32.044Z,1004.64
2018-03-06T09:02:32.623Z,1004.57
2018-03-06T09:03:33.241Z,1004.58
2018-03-06T09:04:33.928Z,1004.60
2018-03-06T09:05:34.506Z,1004.63
2018-03-06T09:06:35.083Z,1004.62
2018-03-06T09:07:35.662Z,1004.57
2018-03-06T09:08:36.239Z,1004.63
2018-03-06T09:09:36.818Z,1004.64
2018-03-06T09:10:37.394Z,1004.61
2018-03-06T09:11:37.975Z,1004.61
2018-03-06T09:12:38.703Z,1004.64
2018-03-06T09:13:39.281Z,1004.70
2018-03-06T09:14:39.860Z,1004.71
2018-03-06T09:15:40.439Z,1004.69
2018-03-06T09:16:41.026Z,1004.77
2018-03-06T09:17:41.704Z,1004.80
2018-03-06T09:18:42.335Z,1004.77
2018-03-06T09:19:42.911Z,1004.82
2018-03-06T09:20:43.492Z,1004.79
2018-03-06T09:21:44.123Z,1004.84
2018-03-06T09:22:44.701Z,1004.82
2018-03-06T09:23:45.330Z,1004.86
2018-03-06T09:24:45.962Z,1004.81
2018-03-06T09:25:46.546Z,1004.82
2018-03-06T09:26:47.124Z,1004.81
2018-03-06T09:27:47.705Z,1004.79
2018-03-06T09:28:48.336Z,1004.87
2018-03-06T09:29:48.959Z,1004.85
2018-03-06T09:30:49.540Z,1004.88
2018-03-06T09:31:50.117Z,1004.82
2018-03-06T09:32:50.693Z,1004.85
2018-03-06T09:33:51.272Z,1004.84
2018-03-06T09:34:51.894Z,1004.86
2018-03-06T09:35:52.522Z,1004.86
2018-03-06T09:36:53.105Z,1004.88
2018-03-06T09:37:53.686Z,1004.96
2018-03-06T09:38:54.275Z,1004.95
2018-03-06T09:39:54.842Z,1004.94
2018-03-06T09:40:55.426Z,1004.95
2018-03-06T09:41:56.004Z,1004.93
2018-03-06T09:42:56.635Z,1004.94
2018-03-06T09:43:57.212Z,1004.92
2018-03-06T09:44:57.838Z,1005.02
2018-03-06T09:45:58.420Z,1004.96
2018-03-06T09:46:59.003Z,1004.96
2018-03-06T09:47:59.582Z,1004.96
2018-03-06T09:49:00.163Z,1005.00
2018-03-06T09:50:00.744Z,1004.94
2018-03-06T09:51:01.324Z,1004.89
2018-03-06T09:52:01.906Z,1004.92
2018-03-06T09:53:02.492Z,1004.94
2018-03-06T09:54:03.065Z,1004.99
2018-03-06T09:55:03.651Z,1004.92
2018-03-06T09:56:04.273Z,1004.96
2018-03-06T09:57:04.851Z,1004.99
2018-03-06T09:58:05.435Z,1004.98
2018-03-06T09:59:06.069Z,1005.00
2018-03-06T10:00:06.700Z,1005.04
2018-03-06T10:01:07.286Z,1005.04
2018-03-06T10:02:07.864Z,1005.04
2018-03-06T10:03:08.444Z,1005.07
2018-03-06T10:04:09.028Z,1005.03
2018-03-06T10:05:09.610Z,1005.02
2018-03-06T10:06:10.192Z,1005.07
2018-03-06T10:07:10.775Z,1005.04
2018-03-06T10:08:11.447Z,1005.04
2018-03-06T10:09:11.988Z,1005.10
2018-03-06T10:10:12.568Z,1005.11
2018-03-06T10:11:13.151Z,1005.00
2018-03-06T10:12:13.729Z,1005.23
2018-03-06T10:13:14.308Z,1005.12
2018-03-06T10:14:15.091Z,1005.14
2018-03-06T10:15:15.717Z,1005.07
2018-03-06T10:16:16.300Z,1005.17
2018-03-06T10:17:16.932Z,1005.17
2018-03-06T10:18:17.560Z,1005.17
2018-03-06T10:19:18.140Z,1005.32
2018-03-06T10:20:18.772Z,1005.24
2018-03-06T10:21:19.355Z,1005.24
2018-03-06T10:22:19.937Z,1005.23
2018-03-06T10:23:20.516Z,1005.18
2018-03-06T10:24:21.101Z,1005.23
2018-03-06T10:25:21.681Z,1005.19
2018-03-06T10:26:22.263Z,1005.21
2018-03-06T10:27:22.843Z,1005.26
2018-03-06T10:28:23.425Z,1005.37
2018-03-06T10:29:24.006Z,1005.27
2018-03-06T10:30:24.587Z,1005.24
2018-03-06T10:31:25.163Z,1005.29
2018-03-06T10:32:25.743Z,1005.32
2018-03-06T10:33:26.328Z,1005.41
2018-03-06T10:34:26.911Z,1005.36
2018-03-06T10:35:27.540Z,1005.26
2018-03-06T10:36:28.171Z,1005.39
2018-03-06T10:37:28.755Z,1005.41
2018-03-06T10:38:29.330Z,1005.40
2018-03-06T10:39:29.974Z,1005.37
2018-03-06T10:40:30.536Z,1005.43
2018-03-06T10:41:31.120Z,1005.36
2018-03-06T10:42:31.702Z,1005.36
2018-03-06T10:43:32.286Z,1005.40
2018-03-06T10:44:32.865Z,1005.38
2018-03-06T10:45:33.451Z,1005.45
2018-03-06T10:46:34.029Z,1005.44
2018-03-06T10:47:34.611Z,1005.45
2018-03-06T10:48:35.192Z,1005.36
2018-03-06T10:49:35.784Z,1005.38
2018-03-06T10:50:36.397Z,1005.53
2018-03-06T10:51:36.976Z,1005.45
2018-03-06T10:52:37.605Z,1005.42
2018-03-06T10:53:38.233Z,1005.46
2018-03-06T10:54:38.810Z,1005.43
2018-03-06T10:55:39.398Z,1005.44
2018-03-06T10:56:40.027Z,1005.49
2018-03-06T10:57:40.611Z,1005.45
2018-03-06T10:58:41.188Z,1005.46
2018-03-06T10:59:41.765Z,1005.55
2018-03-06T11:00:42.344Z,1005.51
2018-03-06T11:01:42.922Z,1005.54
2018-03-06T11:02:43.501Z,1005.56
2018-03-06T11:03:44.080Z,1005.50
2018-03-06T11:04:44.659Z,1005.52
2018-03-06T11:05:45.239Z,1005.45
2018-03-06T11:06:45.816Z,1005.46
2018-03-06T11:07:46.401Z,1005.44
2018-03-06T11:08:46.976Z,1005.53
2018-03-06T11:09:47.604Z,1005.48
2018-03-06T11:10:48.188Z,1005.55
2018-03-06T11:11:48.769Z,1005.53
2018-03-06T11:12:49.349Z,1005.58
2018-03-06T11:13:49.931Z,1005.55
2018-03-06T11:14:50.513Z,1005.59
2018-03-06T11:15:51.246Z,1005.50
2018-03-06T11:16:51.827Z,1005.56
2018-03-06T11:17:52.406Z,1005.52
2018-03-06T11:18:53.039Z,1005.55
2018-03-06T11:19:53.627Z,1005.53
2018-03-06T11:20:54.202Z,1005.44
2018-03-06T11:21:54.783Z,1005.42
2018-03-06T11:22:55.361Z,1005.49
2018-03-06T11:23:55.941Z,1005.52
2018-03-06T11:24:56.520Z,1005.59
2018-03-06T11:25:57.102Z,1005.56
2018-03-06T11:26:57.678Z,1005.49
2018-03-06T11:27:58.310Z,1005.57
2018-03-06T11:28:58.888Z,1005.55
2018-03-06T11:29:59.468Z,1005.58
2018-03-06T11:31:00.098Z,1005.55
2018-03-06T11:32:00.676Z,1005.55
2018-03-06T11:33:01.256Z,1005.56
2018-03-06T11:34:01.834Z,1005.59
2018-03-06T11:35:02.418Z,1005.52
2018-03-06T11:36:03.043Z,1005.51
2018-03-06T11:37:03.622Z,1005.57
2018-03-06T11:38:04.199Z,1005.51
2018-03-06T11:39:04.784Z,1005.56
2018-03-06T11:40:05.415Z,1005.46
2018-03-06T11:41:05.995Z,1005.53
2018-03-06T11:42:06.575Z,1005.59
2018-03-06T11:43:07.159Z,1005.53
2018-03-06T11:44:07.741Z,1005.62
2018-03-06T11:45:08.328Z,1005.62
2018-03-06T11:46:09.056Z,1005.54
2018-03-06T11:47:09.632Z,1005.60
2018-03-06T11:48:10.210Z,1005.69
2018-03-06T11:49:10.790Z,1005.61
2018-03-06T11:50:11.372Z,1005.65
2018-03-06T11:51:12.002Z,1005.67
2018-03-06T11:52:12.631Z,1005.73
2018-03-06T11:53:13.214Z,1005.60
2018-03-06T11:54:13.798Z,1005.68
2018-03-06T11:55:14.427Z,1005.64
2018-03-06T11:56:15.004Z,1005.63
2018-03-06T11:57:15.581Z,1005.64
2018-03-06T11:58:16.208Z,1005.69
2018-03-06T11:59:16.787Z,1005.73
2018-03-06T12:00:17.370Z,1005.70
2018-03-06T12:01:17.948Z,1005.69
2018-03-06T12:02:18.529Z,1005.74
2018-03-06T12:03:19.108Z,1005.76
2018-03-06T12:04:19.692Z,1005.77
2018-03-06T12:05:20.325Z,1005.79
2018-03-06T12:06:20.907Z,1005.73
2018-03-06T12:07:21.535Z,1005.76
2018-03-06T12:08:22.112Z,1005.76
2018-03-06T12:09:22.689Z,1005.84
2018-03-06T12:10:23.273Z,1005.82
2018-03-06T12:11:23.896Z,1005.85
2018-03-06T12:12:24.474Z,1005.85